createdAt,value
2018-02-19T00:00:44.792Z,3.05
2018-02-19T00:01:59.637Z,2.98
2018-02-19T00:03:14.223Z,2.95
2018-02-19T00:04:28.035Z,2.98
2018-02-19T00:05:42.797Z,2.94
2018-02-19T00:06:57.306Z,3.01
2018-02-19T00:08:11.313Z,3.01
2018-02-19T00:09:25.159Z,2.98
2018-02-19T00:10:39.913Z,3.03
2018-02-19T00:11:54.224Z,3.05
2018-02-19T00:13:09.054Z,2.94
2018-02-19T00:14:23.344Z,2.94
2018-02-19T00:15:37.591Z,2.98
2018-02-19T00:16:51.871Z,3.03
2018-02-19T00:18:05.881Z,2.95
2018-02-19T00:19:20.128Z,2.95
2018-02-19T00:20:34.636Z,2.94
2018-02-19T00:21:48.641Z,2.79
2018-02-19T00:23:02.412Z,2.73
2018-02-19T00:24:16.910Z,2.72
2018-02-19T00:25:30.760Z,2.68
2018-02-19T00:26:45.260Z,2.76
2018-02-19T00:27:59.721Z,2.75
2018-02-19T00:29:13.986Z,2.75
2018-02-19T00:30:28.327Z,2.7
2018-02-19T00:31:42.505Z,2.7
2018-02-19T00:32:57.100Z,2.76
2018-02-19T00:34:11.642Z,2.72
2018-02-19T00:35:25.619Z,2.61
2018-02-19T00:36:40.100Z,2.7
2018-02-19T00:37:54.099Z,2.57
2018-02-19T00:39:08.103Z,2.58
2018-02-19T00:40:22.340Z,2.5
2018-02-19T00:41:36.068Z,2.54
2018-02-19T00:42:50.320Z,2.58
2018-02-19T00:44:05.083Z,2.5
2018-02-19T00:45:19.602Z,2.5
2018-02-19T00:46:34.443Z,2.52
2018-02-19T00:47:48.424Z,2.39
2018-02-19T00:49:02.968Z,2.54
2018-02-19T00:50:16.974Z,2.58
2018-02-19T00:51:30.962Z,2.47
2018-02-19T00:52:45.439Z,2.44
2018-02-19T00:53:59.483Z,2.57
2018-02-19T00:55:13.945Z,2.55
2018-02-19T00:56:28.404Z,2.61
2018-02-19T00:57:42.673Z,2.64
2018-02-19T00:58:56.873Z,2.54
2018-02-19T01:00:10.901Z,2.65
2018-02-19T01:01:25.168Z,2.62
2018-02-19T01:02:39.428Z,2.57
2018-02-19T01:03:52.947Z,2.69
2018-02-19T01:05:06.855Z,2.77
2018-02-19T01:06:21.348Z,2.7
2018-02-19T01:07:35.623Z,2.75
2018-02-19T01:08:49.384Z,2.64
2018-02-19T01:10:03.624Z,2.64
2018-02-19T01:11:18.162Z,2.61
2018-02-19T01:12:31.912Z,2.44
2018-02-19T01:13:45.933Z,2.46
2018-02-19T01:14:59.937Z,2.54
2018-02-19T01:16:13.707Z,2.55
2018-02-19T01:17:28.217Z,2.5
2018-02-19T01:18:42.471Z,2.51
2018-02-19T01:19:56.987Z,2.57
2018-02-19T01:21:11.007Z,2.51
2018-02-19T01:22:25.512Z,2.5
2018-02-19T01:23:39.526Z,2.43
2018-02-19T01:24:53.771Z,2.51
2018-02-19T01:26:07.794Z,2.5
2018-02-19T01:27:22.073Z,2.54
2018-02-19T01:28:36.571Z,2.57
2018-02-19T01:29:50.294Z,2.58
2018-02-19T01:31:04.516Z,2.55
2018-02-19T01:32:18.758Z,2.47
2018-02-19T01:33:32.991Z,2.54
2018-02-19T01:34:46.980Z,2.57
2018-02-19T01:36:00.564Z,2.43
2018-02-19T01:37:15.049Z,2.54
2018-02-19T01:38:28.892Z,2.43
2018-02-19T01:39:43.351Z,2.41
2018-02-19T01:40:57.378Z,2.4
2018-02-19T01:42:11.340Z,2.39
2018-02-19T01:43:25.105Z,2.41
2018-02-19T01:44:38.846Z,2.37
2018-02-19T01:45:53.077Z,2.3
2018-02-19T01:47:07.551Z,2.3
2018-02-19T01:48:21.809Z,2.21
2018-02-19T01:49:36.055Z,2.19
2018-02-19T01:50:50.278Z,2.18
2018-02-19T01:52:04.775Z,2.12
2018-02-19T01:53:18.983Z,2.01
2018-02-19T01:54:33.215Z,2
2018-02-19T01:55:47.265Z,1.92
2018-02-19T01:57:01.271Z,2.03
2018-02-19T01:58:15.756Z,1.88
2018-02-19T01:59:30.199Z,1.89
2018-02-19T02:00:44.703Z,1.82
2018-02-19T02:01:58.980Z,1.79
2018-02-19T02:03:12.972Z,1.81
2018-02-19T02:04:26.962Z,1.76
2018-02-19T02:05:40.934Z,1.71
2018-02-19T02:06:55.157Z,1.74
2018-02-19T02:08:09.143Z,1.74
2018-02-19T02:09:23.650Z,1.56
2018-02-19T02:10:37.884Z,1.5
2018-02-19T02:11:51.973Z,1.53
2018-02-19T02:13:05.714Z,1.48
2018-02-19T02:14:20.180Z,1.53
2018-02-19T02:15:34.390Z,1.52
2018-02-19T02:16:48.361Z,1.38
2018-02-19T02:18:02.827Z,1.39
2018-02-19T02:19:17.060Z,1.28
2018-02-19T02:20:31.508Z,1.27
2018-02-19T02:21:45.985Z,1.38
2018-02-19T02:22:59.955Z,1.3
2018-02-19T02:24:13.684Z,1.32
2018-02-19T02:25:27.671Z,1.4
2018-02-19T02:26:41.682Z,1.36
2018-02-19T02:27:55.679Z,1.4
2018-02-19T02:29:09.692Z,1.38
2018-02-19T02:30:24.193Z,1.27
2018-02-19T02:31:38.191Z,1.28
2018-02-19T02:32:52.654Z,1.28
2018-02-19T02:34:07.149Z,1.25
2018-02-19T02:35:21.150Z,1.27
2018-02-19T02:36:35.849Z,1.22
2018-02-19T02:37:49.613Z,1.3
2018-02-19T02:39:03.880Z,1.27
2018-02-19T02:40:18.128Z,1.28
2018-02-19T02:41:32.616Z,1.27
2018-02-19T02:42:46.628Z,1.31
2018-02-19T02:44:00.640Z,1.27
2018-02-19T02:45:14.707Z,1.34
2018-02-19T02:46:29.191Z,1.25
2018-02-19T02:47:43.445Z,1.28
2018-02-19T02:48:57.427Z,1.25
2018-02-19T02:50:11.538Z,1.24
2018-02-19T02:51:25.771Z,1.3
2018-02-19T02:53:09.822Z,1.27
2018-02-19T02:54:24.368Z,1.34
2018-02-19T02:55:38.185Z,1.38
2018-02-19T02:56:52.531Z,1.39
2018-02-19T02:58:07.048Z,1.46
2018-02-19T02:59:21.306Z,1.5
2018-02-19T03:00:35.314Z,1.52
2018-02-19T03:01:50.050Z,1.46
2018-02-19T03:03:04.265Z,1.56
2018-02-19T03:04:18.801Z,1.49
2018-02-19T03:05:32.820Z,1.48
2018-02-19T03:06:47.290Z,1.43
2018-02-19T03:08:01.530Z,1.46
2018-02-19T03:09:15.777Z,1.43
2018-02-19T03:10:29.975Z,1.31
2018-02-19T03:11:44.449Z,1.31
2018-02-19T03:12:58.498Z,1.2
2018-02-19T03:14:12.992Z,1.27
2018-02-19T03:15:26.982Z,1.18
2018-02-19T03:16:41.473Z,1.13
2018-02-19T03:17:56.304Z,1.09
2018-02-19T03:19:10.767Z,1.13
2018-02-19T03:20:24.265Z,1.14
2018-02-19T03:21:38.481Z,1.13
2018-02-19T03:22:52.204Z,1.1
2018-02-19T03:24:05.920Z,0.99
2018-02-19T03:25:19.900Z,1.07
2018-02-19T03:26:34.500Z,1.04
2018-02-19T03:27:48.584Z,1.09
2018-02-19T03:29:03.066Z,1.12
2018-02-19T03:30:17.562Z,1.12
2018-02-19T03:31:31.811Z,1.16
2018-02-19T03:32:46.084Z,1.21
2018-02-19T03:34:00.099Z,1.18
2018-02-19T03:35:13.863Z,1.2
2018-02-19T03:36:28.120Z,1.18
2018-02-19T03:37:42.618Z,1.22
2018-02-19T03:38:56.854Z,1.22
2018-02-19T03:40:10.847Z,1.22
2018-02-19T03:41:24.592Z,1.22
2018-02-19T03:42:39.048Z,1.27
2018-02-19T03:43:53.516Z,1.31
2018-02-19T03:45:07.293Z,1.22
2018-02-19T03:46:21.301Z,1.34
2018-02-19T03:47:35.043Z,1.28
2018-02-19T03:48:49.544Z,1.25
2018-02-19T03:50:03.581Z,1.32
2018-02-19T03:51:17.935Z,1.25
2018-02-19T03:52:31.915Z,1.25
2018-02-19T03:53:46.128Z,1.09
2018-02-19T03:54:59.649Z,1.07
2018-02-19T03:56:13.650Z,1.13
2018-02-19T03:57:28.370Z,1.1
2018-02-19T03:58:43.085Z,1.04
2018-02-19T03:59:57.309Z,1.12
2018-02-19T04:01:11.568Z,1.07
2018-02-19T04:02:25.808Z,1.1
2018-02-19T04:03:39.298Z,1.09
2018-02-19T04:04:53.047Z,1.13
2018-02-19T04:06:07.511Z,1.13
2018-02-19T04:07:21.744Z,1.2
2018-02-19T04:08:36.217Z,1.12
2018-02-19T04:09:50.214Z,1.1
2018-02-19T04:11:03.958Z,1.1
2018-02-19T04:12:18.207Z,1.06
2018-02-19T04:13:32.421Z,1.06
2018-02-19T04:14:46.640Z,0.95
2018-02-19T04:16:01.094Z,1.04
2018-02-19T04:17:15.557Z,1.04
2018-02-19T04:18:30.043Z,1.07
2018-02-19T04:19:43.554Z,1.12
2018-02-19T04:20:57.549Z,1.07
2018-02-19T04:22:12.007Z,1.09
2018-02-19T04:23:26.240Z,0.96
2018-02-19T04:24:40.605Z,0.96
2018-02-19T04:25:55.362Z,0.96
2018-02-19T04:27:09.624Z,1.04
2018-02-19T04:28:24.103Z,1.02
2018-02-19T04:29:38.400Z,1.03
2018-02-19T04:30:52.703Z,1
2018-02-19T04:32:07.008Z,0.96
2018-02-19T04:33:21.066Z,0.84
2018-02-19T04:34:34.450Z,0.86
2018-02-19T04:35:49.239Z,0.88
2018-02-19T04:37:03.482Z,0.74
2018-02-19T04:38:17.459Z,0.71
2018-02-19T04:39:31.712Z,0.71
2018-02-19T04:40:45.968Z,0.63
2018-02-19T04:42:00.212Z,0.64
2018-02-19T04:43:14.701Z,0.74
2018-02-19T04:44:28.954Z,0.59
2018-02-19T04:45:58.314Z,0.7
2018-02-19T04:47:13.087Z,0.78
2018-02-19T04:48:27.093Z,0.68
2018-02-19T04:49:41.082Z,0.68
2018-02-19T04:50:56.046Z,0.68
2018-02-19T04:52:09.310Z,0.67
2018-02-19T04:53:23.530Z,0.63
2018-02-19T04:54:37.060Z,0.66
2018-02-19T04:55:51.299Z,0.68
2018-02-19T04:57:05.399Z,0.66
2018-02-19T04:58:19.130Z,0.71
2018-02-19T04:59:33.896Z,0.7
2018-02-19T05:00:47.905Z,0.64
2018-02-19T05:02:01.912Z,0.71
2018-02-19T05:03:15.929Z,0.73
2018-02-19T05:04:29.703Z,0.73
2018-02-19T05:05:43.902Z,0.74
2018-02-19T05:06:58.648Z,0.73
2018-02-19T05:08:12.887Z,0.74
2018-02-19T05:09:27.089Z,0.81
2018-02-19T05:10:41.330Z,0.76
2018-02-19T05:11:55.326Z,0.78
2018-02-19T05:13:09.077Z,0.74
2018-02-19T05:14:23.572Z,0.74
2018-02-19T05:15:37.870Z,0.73
2018-02-19T05:16:52.656Z,0.68
2018-02-19T05:18:06.950Z,0.7
2018-02-19T05:19:21.194Z,0.7
2018-02-19T05:20:34.956Z,0.71
2018-02-19T05:21:48.732Z,0.73
2018-02-19T05:23:03.493Z,0.7
2018-02-19T05:24:17.707Z,0.74
2018-02-19T05:25:32.437Z,0.77
2018-02-19T05:26:46.441Z,0.7
2018-02-19T05:28:00.706Z,0.73
2018-02-19T05:29:15.179Z,0.68
2018-02-19T05:30:29.310Z,0.68
2018-02-19T05:31:43.779Z,0.68
2018-02-19T05:32:58.264Z,0.61
2018-02-19T05:34:12.740Z,0.64
2018-02-19T05:35:26.826Z,0.71
2018-02-19T05:36:40.843Z,0.63
2018-02-19T05:37:55.098Z,0.68
2018-02-19T05:39:09.802Z,0.66
2018-02-19T05:40:24.045Z,0.66
2018-02-19T05:41:38.316Z,0.67
2018-02-19T05:42:52.335Z,0.49
2018-02-19T05:44:05.884Z,0.66
2018-02-19T05:45:19.665Z,0.61
2018-02-19T05:46:33.408Z,0.66
2018-02-19T05:47:47.927Z,0.66
2018-02-19T05:49:02.421Z,0.64
2018-02-19T05:50:17.155Z,0.56
2018-02-19T05:51:31.385Z,0.66
2018-02-19T05:52:45.405Z,0.63
2018-02-19T05:54:00.136Z,0.63
2018-02-19T05:55:14.637Z,0.64
2018-02-19T05:56:28.879Z,0.58
2018-02-19T05:57:43.146Z,0.67
2018-02-19T05:58:57.887Z,0.68
2018-02-19T06:00:11.419Z,0.66
2018-02-19T06:01:25.653Z,0.67
2018-02-19T06:02:40.402Z,0.7
2018-02-19T06:03:54.561Z,0.64
2018-02-19T06:05:08.310Z,0.67
2018-02-19T06:06:22.313Z,0.66
2018-02-19T06:07:36.078Z,0.55
2018-02-19T06:08:50.327Z,0.66
2018-02-19T06:10:04.798Z,0.64
2018-02-19T06:11:18.558Z,0.59
2018-02-19T06:12:33.183Z,0.67
2018-02-19T06:13:47.683Z,0.56
2018-02-19T06:15:01.685Z,0.64
2018-02-19T06:16:15.653Z,0.55
2018-02-19T06:17:29.921Z,0.58
2018-02-19T06:18:43.973Z,0.52
2018-02-19T06:19:58.258Z,0.56
2018-02-19T06:21:12.007Z,0.58
2018-02-19T06:22:25.734Z,0.55
2018-02-19T06:23:39.752Z,0.63
2018-02-19T06:24:53.739Z,0.56
2018-02-19T06:26:07.972Z,0.61
2018-02-19T06:27:22.185Z,0.66
2018-02-19T06:28:36.699Z,0.61
2018-02-19T06:29:50.935Z,0.68
2018-02-19T06:31:05.431Z,0.61
2018-02-19T06:32:19.664Z,0.61
2018-02-19T06:33:33.894Z,0.59
2018-02-19T06:34:48.395Z,0.52
2018-02-19T06:36:02.966Z,0.49
2018-02-19T06:37:17.325Z,0.47
2018-02-19T06:38:31.810Z,0.49
2018-02-19T06:39:45.809Z,0.4
2018-02-19T06:41:00.058Z,0.44
2018-02-19T06:42:14.046Z,0.44
2018-02-19T06:43:28.605Z,0.31
2018-02-19T06:44:42.878Z,0.36
2018-02-19T06:45:57.361Z,0.34
2018-02-19T06:47:11.605Z,0.36
2018-02-19T06:48:25.870Z,0.31
2018-02-19T06:49:39.910Z,0.33
2018-02-19T06:50:53.935Z,0.33
2018-02-19T06:52:08.463Z,0.37
2018-02-19T06:53:23.184Z,0.31
2018-02-19T06:54:37.736Z,0.3
2018-02-19T06:55:52.239Z,0.34
2018-02-19T06:57:06.737Z,0.29
2018-02-19T06:58:20.486Z,0.45
2018-02-19T06:59:34.724Z,0.47
2018-02-19T07:00:49.307Z,0.51
2018-02-19T07:02:03.571Z,0.61
2018-02-19T07:03:17.623Z,0.61
2018-02-19T07:04:31.416Z,0.66
2018-02-19T07:05:45.918Z,0.67
2018-02-19T07:07:00.210Z,0.74
2018-02-19T07:08:14.712Z,0.73
2018-02-19T07:09:28.958Z,0.73
2018-02-19T07:10:43.088Z,0.73
2018-02-19T07:11:57.814Z,0.86
2018-02-19T07:13:12.316Z,0.99
2018-02-19T07:14:27.049Z,1
2018-02-19T07:15:41.537Z,1.03
2018-02-19T07:16:55.035Z,1.07
2018-02-19T07:18:09.275Z,1.04
2018-02-19T07:19:23.002Z,1
2018-02-19T07:20:36.988Z,1.13
2018-02-19T07:21:51.225Z,1.16
2018-02-19T07:23:05.382Z,1.2
2018-02-19T07:24:19.659Z,1.28
2018-02-19T07:25:33.438Z,1.42
2018-02-19T07:26:47.923Z,1.52
2018-02-19T07:28:02.692Z,1.52
2018-02-19T07:29:16.936Z,1.66
2018-02-19T07:30:31.194Z,1.71
2018-02-19T07:31:45.550Z,1.71
2018-02-19T07:32:59.846Z,1.78
2018-02-19T07:34:14.609Z,1.81
2018-02-19T07:35:28.358Z,1.84
2018-02-19T07:36:42.699Z,1.89
2018-02-19T07:37:56.942Z,1.88
2018-02-19T07:39:10.230Z,2
2018-02-19T07:40:24.290Z,1.84
2018-02-19T07:41:38.295Z,1.88
2018-02-19T07:42:52.778Z,1.84
2018-02-19T07:44:06.939Z,1.78
2018-02-19T07:45:21.092Z,1.68
2018-02-19T07:46:35.361Z,1.78
2018-02-19T07:47:49.839Z,1.79
2018-02-19T07:49:04.074Z,1.85
2018-02-19T07:50:18.415Z,1.88
2018-02-19T07:51:32.712Z,2.04
2018-02-19T07:52:46.964Z,1.88
2018-02-19T07:54:00.746Z,1.85
2018-02-19T07:55:14.763Z,1.89
2018-02-19T07:56:28.509Z,1.84
2018-02-19T07:57:42.783Z,1.88
2018-02-19T07:58:56.543Z,1.86
2018-02-19T08:00:10.819Z,1.84
2018-02-19T08:01:25.306Z,1.85
2018-02-19T08:02:39.587Z,1.93
2018-02-19T08:03:54.318Z,1.85
2018-02-19T08:05:08.845Z,1.88
2018-02-19T08:06:23.088Z,1.88
2018-02-19T08:07:36.846Z,1.93
2018-02-19T08:08:51.321Z,1.86
2018-02-19T08:10:05.348Z,1.89
2018-02-19T08:11:19.102Z,2.15
2018-02-19T08:12:32.955Z,2.07
2018-02-19T08:13:47.829Z,2.21
2018-02-19T08:15:02.542Z,2.37
2018-02-19T08:16:16.752Z,2.37
2018-02-19T08:17:30.589Z,2.37
2018-02-19T08:18:44.568Z,2.41
2018-02-19T08:19:59.325Z,2.4
2018-02-19T08:21:13.061Z,2.43
2018-02-19T08:22:27.147Z,2.43
2018-02-19T08:23:41.155Z,2.58
2018-02-19T08:24:55.175Z,2.64
2018-02-19T08:26:09.939Z,2.7
2018-02-19T08:27:24.438Z,2.8
2018-02-19T08:28:38.215Z,2.93
2018-02-19T08:29:52.242Z,3.05
2018-02-19T08:31:06.486Z,3.13
2018-02-19T08:32:20.583Z,3.19
2018-02-19T08:33:34.601Z,3.22
2018-02-19T08:34:48.876Z,3.27
2018-02-19T08:36:02.598Z,3.26
2018-02-19T08:37:17.110Z,3.24
2018-02-19T08:38:30.846Z,3.31
2018-02-19T08:39:45.341Z,3.33
2018-02-19T08:40:59.113Z,3.05
2018-02-19T08:42:13.373Z,2.97
2018-02-19T08:43:27.126Z,3
2018-02-19T08:44:41.398Z,3
2018-02-19T08:45:55.649Z,2.98
2018-02-19T08:47:09.422Z,3.27
2018-02-19T08:48:22.957Z,3.08
2018-02-19T08:49:37.474Z,3.11
2018-02-19T08:50:51.629Z,3.05
2018-02-19T08:52:06.151Z,2.97
2018-02-19T08:53:20.466Z,3.01
2018-02-19T08:54:34.582Z,2.98
2018-02-19T08:55:48.859Z,2.95
2018-02-19T08:57:03.112Z,3.05
2018-02-19T08:58:17.098Z,2.97
2018-02-19T08:59:31.110Z,2.98
2018-02-19T09:00:45.470Z,2.97
2018-02-19T09:01:59.267Z,2.95
2018-02-19T09:03:13.764Z,3.15
2018-02-19T09:04:28.027Z,3.13
2018-02-19T09:05:42.421Z,3.15
2018-02-19T09:06:56.714Z,3.12
2018-02-19T09:08:10.479Z,3.12
2018-02-19T09:09:24.718Z,3.22
2018-02-19T09:10:38.983Z,3.21
2018-02-19T09:11:53.448Z,3.26
2018-02-19T09:13:07.448Z,3.24
2018-02-19T09:14:21.973Z,3.21
2018-02-19T09:15:36.460Z,3.16
2018-02-19T09:16:50.967Z,3.18
2018-02-19T09:18:04.538Z,3.37
2018-02-19T09:19:19.279Z,3.36
2018-02-19T09:20:34.061Z,3.36
2018-02-19T09:21:47.578Z,3.37
2018-02-19T09:23:01.626Z,3.52
2018-02-19T09:24:15.759Z,3.46
2018-02-19T09:25:30.288Z,3.43
2018-02-19T09:26:44.805Z,3.37
2018-02-19T09:27:59.327Z,3.36
2018-02-19T09:29:12.853Z,3.43
2018-02-19T09:30:26.839Z,3.36
2018-02-19T09:31:41.104Z,3.52
2018-02-19T09:32:55.134Z,3.49
2018-02-19T09:34:09.431Z,3.52
2018-02-19T09:35:23.699Z,3.46
2018-02-19T09:36:38.005Z,3.4
2018-02-19T09:37:51.787Z,3.41
2018-02-19T09:39:06.024Z,3.45
2018-02-19T09:40:20.296Z,3.43
2018-02-19T09:41:34.066Z,3.29
2018-02-19T09:42:48.447Z,3.3
2018-02-19T09:44:02.463Z,3.3
2018-02-19T09:45:16.747Z,3.41
2018-02-19T09:46:31.288Z,3.55
2018-02-19T09:47:45.616Z,3.64
2018-02-19T09:49:00.222Z,3.82
2018-02-19T09:50:14.997Z,3.91
2018-02-19T09:51:28.757Z,4.12
2018-02-19T09:52:43.038Z,4.16
2018-02-19T09:53:56.571Z,4.13
2018-02-19T09:55:11.143Z,4.2
2018-02-19T09:56:25.668Z,4.16
2018-02-19T09:57:39.843Z,4.07
2018-02-19T09:58:53.855Z,4.1
2018-02-19T10:00:08.381Z,3.86
2018-02-19T10:01:22.430Z,3.95
2018-02-19T10:02:36.711Z,4.04
2018-02-19T10:03:50.962Z,4.09
2018-02-19T10:05:05.501Z,4.04
2018-02-19T10:06:20.001Z,4.09
2018-02-19T10:07:34.805Z,4.04
2018-02-19T10:08:48.613Z,4.12
2018-02-19T10:10:02.950Z,4.21
2018-02-19T10:11:17.581Z,4.31
2018-02-19T10:12:31.623Z,4.27
2018-02-19T10:13:46.156Z,4.52
2018-02-19T10:15:00.915Z,4.58
2018-02-19T10:16:15.202Z,4.49
2018-02-19T10:17:29.253Z,4.6
2018-02-19T10:18:43.826Z,4.52
2018-02-19T10:19:58.361Z,4.56
2018-02-19T10:21:12.708Z,4.52
2018-02-19T10:22:26.473Z,4.66
2018-02-19T10:23:40.717Z,4.66
2018-02-19T10:24:54.984Z,4.67
2018-02-19T10:26:09.263Z,4.86
2018-02-19T10:27:23.268Z,4.98
2018-02-19T10:28:37.766Z,4.95
2018-02-19T10:29:51.288Z,4.84
2018-02-19T10:31:05.746Z,4.9
2018-02-19T10:32:20.510Z,4.83
2018-02-19T10:33:35.082Z,4.83
2018-02-19T10:34:49.556Z,4.83
2018-02-19T10:36:03.381Z,4.75
2018-02-19T10:37:17.690Z,4.83
2018-02-19T10:38:32.348Z,4.9
2018-02-19T10:39:46.183Z,5
2018-02-19T10:40:59.511Z,5
2018-02-19T10:42:13.800Z,4.94
2018-02-19T10:43:28.064Z,5.04
2018-02-19T10:44:42.450Z,5.07
2018-02-19T10:45:57.054Z,5.05
2018-02-19T10:47:11.790Z,4.95
2018-02-19T10:48:26.142Z,5.02
2018-02-19T10:49:40.474Z,5.02
2018-02-19T10:50:54.270Z,4.86
2018-02-19T10:52:08.807Z,4.95
2018-02-19T10:53:23.355Z,5.07
2018-02-19T10:54:37.372Z,5.04
2018-02-19T10:55:51.903Z,4.97
2018-02-19T10:57:05.973Z,4.94
2018-02-19T10:58:19.778Z,4.9
2018-02-19T10:59:33.572Z,5.02
2018-02-19T11:00:48.097Z,5.04
2018-02-19T11:02:02.152Z,4.94
2018-02-19T11:03:16.423Z,4.98
2018-02-19T11:04:30.807Z,5
2018-02-19T11:05:45.331Z,5.12
2018-02-19T11:06:59.590Z,5.33
2018-02-19T11:08:14.368Z,5.43
2018-02-19T11:09:28.161Z,5.41
2018-02-19T11:10:42.456Z,5.51
2018-02-19T11:11:56.449Z,5.65
2018-02-19T11:13:10.255Z,5.65
2018-02-19T11:14:24.408Z,5.7
2018-02-19T11:15:38.449Z,5.73
2018-02-19T11:16:52.701Z,5.77
2018-02-19T11:18:06.242Z,5.64
2018-02-19T11:19:20.761Z,5.54
2018-02-19T11:20:34.784Z,5.51
2018-02-19T11:21:48.850Z,5.67
2018-02-19T11:23:03.374Z,5.77
2018-02-19T11:24:17.487Z,5.77
2018-02-19T11:25:31.451Z,5.83
2018-02-19T11:26:45.931Z,5.9
2018-02-19T11:28:00.420Z,5.87
2018-02-19T11:29:14.962Z,5.84
2018-02-19T11:30:28.478Z,6.07
2018-02-19T11:31:42.547Z,6.19
2018-02-19T11:32:57.081Z,6.32
2018-02-19T11:34:10.944Z,6.32
2018-02-19T11:35:25.191Z,6.47
2018-02-19T11:36:39.746Z,6.43
2018-02-19T11:37:54.173Z,6.53
2018-02-19T11:39:08.674Z,6.59
2018-02-19T11:40:22.330Z,6.65
2018-02-19T11:41:36.488Z,6.68
2018-02-19T11:42:49.809Z,6.54
2018-02-19T11:44:04.122Z,6.54
2018-02-19T11:45:18.662Z,6.49
2018-02-19T11:46:32.982Z,6.43
2018-02-19T11:47:47.678Z,6.34
2018-02-19T11:49:01.471Z,6.34
2018-02-19T11:50:16.206Z,6.49
2018-02-19T11:51:30.513Z,6.59
2018-02-19T11:52:45.133Z,6.52
2018-02-19T11:53:59.182Z,6.5
2018-02-19T11:55:13.226Z,6.52
2018-02-19T11:56:27.502Z,6.5
2018-02-19T11:57:42.007Z,6.53
2018-02-19T11:58:56.528Z,6.71
2018-02-19T12:00:11.070Z,6.77
2018-02-19T12:01:25.585Z,7.01
2018-02-19T12:02:39.861Z,7.23
2018-02-19T12:03:54.404Z,7.14
2018-02-19T12:05:08.652Z,7.13
2018-02-19T12:06:22.954Z,7.21
2018-02-19T12:07:37.213Z,7.14
2018-02-19T12:08:51.502Z,6.92
2018-02-19T12:10:05.787Z,6.75
2018-02-19T12:11:19.918Z,6.57
2018-02-19T12:12:33.740Z,6.46
2018-02-19T12:13:47.993Z,6.54
2018-02-19T12:15:02.256Z,6.57
2018-02-19T12:16:16.749Z,6.77
2018-02-19T12:17:31.051Z,6.75
2018-02-19T12:18:45.563Z,6.85
2018-02-19T12:19:59.841Z,6.97
2018-02-19T12:21:14.364Z,6.83
2018-02-19T12:22:28.631Z,6.92
2018-02-19T12:23:42.662Z,6.82
2018-02-19T12:24:57.181Z,6.96
2018-02-19T12:26:10.962Z,6.86
2018-02-19T12:27:25.250Z,6.92
2018-02-19T12:28:39.092Z,6.92
2018-02-19T12:29:53.391Z,6.93
2018-02-19T12:31:08.150Z,6.87
2018-02-19T12:32:22.760Z,7.03
2018-02-19T12:33:37.083Z,6.72
2018-02-19T12:34:51.816Z,6.54
2018-02-19T12:36:20.498Z,6.31
2018-02-19T12:37:34.788Z,6.43
2018-02-19T12:38:49.049Z,6.49
2018-02-19T12:40:03.606Z,6.49
2018-02-19T12:41:18.181Z,6.41
2018-02-19T12:42:32.496Z,6.46
2018-02-19T12:43:47.390Z,6.28
2018-02-19T12:45:01.459Z,6.16
2018-02-19T12:46:15.525Z,6.02
2018-02-19T12:47:29.573Z,6.01
2018-02-19T12:48:43.652Z,6.16
2018-02-19T12:49:57.495Z,6.16
2018-02-19T12:51:11.819Z,6.34
2018-02-19T12:52:25.927Z,6.38
2018-02-19T12:53:40.511Z,6.44
2018-02-19T12:55:09.732Z,6.65
2018-02-19T12:56:24.255Z,6.75
2018-02-19T12:57:38.291Z,6.7
2018-02-19T12:58:52.476Z,6.75
2018-02-19T13:00:07.054Z,6.53
2018-02-19T13:01:21.953Z,6.56
2018-02-19T13:02:36.075Z,6.46
2018-02-19T13:03:49.621Z,6.52
2018-02-19T13:05:03.288Z,6.38
2018-02-19T13:06:17.755Z,6.49
2018-02-19T13:07:31.929Z,6.31
2018-02-19T13:08:46.880Z,6.17
2018-02-19T13:10:01.815Z,6.19
2018-02-19T13:11:16.097Z,6.26
2018-02-19T13:12:30.670Z,6.43
2018-02-19T13:13:45.168Z,6.65
2018-02-19T13:14:59.413Z,6.43
2018-02-19T13:16:14.311Z,6.25
2018-02-19T13:17:28.680Z,6.17
2018-02-19T13:18:43.237Z,6.22
2018-02-19T13:19:57.894Z,6.05
2018-02-19T13:21:12.951Z,6.26
2018-02-19T13:22:28.099Z,6.35
2018-02-19T13:23:42.463Z,6.44
2018-02-19T13:24:57.023Z,6.54
2018-02-19T13:26:11.690Z,6.57
2018-02-19T13:27:26.027Z,6.54
2018-02-19T13:28:40.693Z,6.57
2018-02-19T13:29:54.538Z,6.59
2018-02-19T13:31:08.682Z,6.56
2018-02-19T13:32:23.025Z,6.62
2018-02-19T13:33:37.903Z,6.68
2018-02-19T13:34:52.650Z,6.68
2018-02-19T13:36:06.960Z,6.59
2018-02-19T13:37:22.256Z,6.56
2018-02-19T13:38:36.638Z,6.47
2018-02-19T13:39:50.812Z,6.53
2018-02-19T13:41:05.539Z,6.44
2018-02-19T13:42:19.455Z,6.43
2018-02-19T13:43:33.641Z,6.36
2018-02-19T13:44:48.139Z,6.32
2018-02-19T13:46:02.342Z,6.28
2018-02-19T13:47:17.285Z,6.47
2018-02-19T13:48:31.432Z,6.52
2018-02-19T13:49:45.950Z,6.57
2018-02-19T13:51:00.240Z,6.43
2018-02-19T13:52:14.350Z,6.44
2018-02-19T13:53:28.915Z,6.34
2018-02-19T13:54:43.675Z,6.38
2018-02-19T13:55:58.359Z,6.31
2018-02-19T13:57:12.898Z,6.19
2018-02-19T13:58:27.008Z,6.28
2018-02-19T13:59:41.637Z,6.17
2018-02-19T14:00:55.847Z,6.2
2018-02-19T14:02:09.847Z,6.29
2018-02-19T14:03:24.503Z,6.38
2018-02-19T14:04:39.090Z,6.2
2018-02-19T14:05:53.682Z,6.2
2018-02-19T14:07:08.560Z,6.2
2018-02-19T14:08:23.173Z,6.32
2018-02-19T14:09:37.769Z,6.47
2018-02-19T14:10:52.132Z,6.54
2018-02-19T14:12:06.711Z,6.41
2018-02-19T14:13:21.761Z,6.35
2018-02-19T14:14:36.421Z,6.19
2018-02-19T14:15:51.029Z,6.15
2018-02-19T14:17:05.050Z,6.25
2018-02-19T14:18:19.978Z,6.2
2018-02-19T14:19:34.074Z,6.25
2018-02-19T14:20:48.138Z,6.19
2018-02-19T14:22:02.355Z,6.2
2018-02-19T14:23:17.317Z,6.12
2018-02-19T14:24:31.684Z,6.2
2018-02-19T14:25:46.279Z,6.05
2018-02-19T14:27:01.160Z,6.07
2018-02-19T14:28:14.948Z,6.06
2018-02-19T14:29:29.110Z,5.98
2018-02-19T14:30:43.772Z,5.88
2018-02-19T14:31:58.032Z,5.79
2018-02-19T14:33:12.096Z,5.83
2018-02-19T14:34:26.152Z,5.64
2018-02-19T14:35:39.980Z,5.54
2018-02-19T14:36:54.249Z,5.59
2018-02-19T14:38:23.693Z,5.56
2018-02-19T14:39:37.240Z,5.55
2018-02-19T14:40:51.455Z,5.54
2018-02-19T14:42:05.516Z,5.64
2018-02-19T14:43:19.914Z,5.59
2018-02-19T14:44:34.653Z,5.56
2018-02-19T14:45:49.063Z,5.64
2018-02-19T14:47:03.596Z,5.61
2018-02-19T14:48:17.405Z,5.65
2018-02-19T14:49:31.949Z,5.72
2018-02-19T14:50:46.666Z,5.77
2018-02-19T14:52:01.541Z,5.73
2018-02-19T14:53:15.605Z,5.67
2018-02-19T14:54:30.267Z,5.72
2018-02-19T14:55:45.047Z,5.55
2018-02-19T14:56:59.422Z,5.69
2018-02-19T14:58:13.944Z,5.58
2018-02-19T14:59:28.274Z,5.56
2018-02-19T15:00:42.599Z,5.61
2018-02-19T15:01:56.509Z,5.61
2018-02-19T15:03:09.856Z,5.55
2018-02-19T15:04:23.890Z,5.52
2018-02-19T15:05:38.190Z,5.46
2018-02-19T15:06:52.720Z,5.34
2018-02-19T15:08:06.769Z,5.29
2018-02-19T15:09:21.159Z,5.26
2018-02-19T15:10:35.433Z,5.25
2018-02-19T15:11:49.437Z,5.38
2018-02-19T15:13:04.125Z,5.43
2018-02-19T15:14:17.916Z,5.44
2018-02-19T15:15:31.594Z,5.49
2018-02-19T15:16:46.110Z,5.55
2018-02-19T15:17:59.908Z,5.55
2018-02-19T15:19:14.489Z,5.61
2018-02-19T15:20:28.509Z,5.58
2018-02-19T15:21:42.694Z,5.55
2018-02-19T15:22:57.277Z,5.52
2018-02-19T15:24:11.563Z,5.41
2018-02-19T15:25:26.224Z,5.37
2018-02-19T15:26:40.300Z,5.41
2018-02-19T15:27:54.582Z,5.37
2018-02-19T15:29:08.781Z,5.47
2018-02-19T15:30:22.980Z,5.44
2018-02-19T15:31:37.238Z,5.43
2018-02-19T15:32:52.056Z,5.44
2018-02-19T15:34:06.294Z,5.38
2018-02-19T15:35:21.073Z,5.43
2018-02-19T15:36:35.684Z,5.34
2018-02-19T15:37:50.606Z,5.44
2018-02-19T15:39:05.201Z,5.33
2018-02-19T15:40:19.616Z,5.31
2018-02-19T15:41:33.814Z,5.4
2018-02-19T15:42:48.708Z,5.33
2018-02-19T15:44:03.659Z,5.23
2018-02-19T15:45:18.243Z,5.25
2018-02-19T15:46:33.452Z,5.19
2018-02-19T15:47:48.078Z,5.1
2018-02-19T15:49:02.616Z,5.05
2018-02-19T15:50:17.843Z,5.07
2018-02-19T15:51:32.557Z,4.94
2018-02-19T15:52:47.867Z,5.02
2018-02-19T15:54:02.872Z,5.02
2018-02-19T15:55:17.007Z,5.05
2018-02-19T15:56:31.774Z,5.18
2018-02-19T15:57:46.481Z,5.08
2018-02-19T15:59:15.842Z,5.05
2018-02-19T16:00:30.281Z,5.05
2018-02-19T16:01:44.952Z,4.98
2018-02-19T16:02:59.979Z,5.05
2018-02-19T16:04:15.394Z,5.01
2018-02-19T16:05:30.032Z,5.02
2018-02-19T16:06:43.962Z,5.1
2018-02-19T16:07:58.366Z,5.16
2018-02-19T16:09:12.359Z,5.16
2018-02-19T16:10:26.899Z,5.04
2018-02-19T16:11:41.273Z,5.13
2018-02-19T16:12:56.220Z,5.15
2018-02-19T16:14:10.540Z,5.1
2018-02-19T16:15:25.177Z,5.08
2018-02-19T16:16:39.333Z,5.05
2018-02-19T16:17:53.930Z,5.01
2018-02-19T16:19:07.819Z,4.94
2018-02-19T16:20:22.830Z,5.02
2018-02-19T16:21:36.373Z,5.01
2018-02-19T16:22:50.229Z,5.02
2018-02-19T16:24:04.584Z,5
2018-02-19T16:25:18.989Z,5.01
2018-02-19T16:26:33.930Z,5
2018-02-19T16:27:48.538Z,4.92
2018-02-19T16:29:02.950Z,4.95
2018-02-19T16:30:16.978Z,5
2018-02-19T16:31:31.074Z,4.84
2018-02-19T16:32:45.236Z,4.9
2018-02-19T16:33:59.199Z,4.84
2018-02-19T16:35:14.000Z,4.94